createdAt,value
2022-10-06T00:01:06.321Z,99.90
2022-10-06T00:03:34.366Z,99.90
2022-10-06T00:06:04.696Z,99.90
2022-10-06T00:08:33.440Z,99.90
2022-10-06T00:11:01.275Z,99.90
2022-10-06T00:13:30.159Z,99.90
2022-10-06T00:15:58.254Z,99.90
2022-10-06T00:18:26.583Z,99.90
2022-10-06T00:20:56.043Z,99.90
2022-10-06T00:23:25.977Z,99.90
2022-10-06T00:25:53.815Z,99.90
2022-10-06T00:28:22.362Z,99.90
2022-10-06T00:30:53.219Z,99.90
2022-10-06T00:33:21.557Z,99.90
2022-10-06T00:35:56.927Z,99.90
2022-10-06T00:38:26.840Z,99.90
2022-10-06T00:40:55.120Z,99.90
2022-10-06T00:43:45.725Z,99.90
2022-10-06T00:46:18.846Z,99.90
2022-10-06T00:48:51.106Z,99.90
2022-10-06T00:51:20.896Z,99.90
2022-10-06T00:53:50.318Z,99.90
2022-10-06T00:56:18.524Z,99.90
2022-10-06T00:58:46.505Z,99.90
2022-10-06T01:01:15.013Z,99.90
2022-10-06T01:03:47.876Z,99.90
2022-10-06T01:06:15.709Z,99.90
2022-10-06T01:08:43.779Z,99.90
2022-10-06T01:11:14.194Z,99.90
2022-10-06T01:13:46.368Z,99.90
2022-10-06T01:16:20.792Z,99.90
2022-10-06T01:18:49.691Z,99.90
2022-10-06T01:21:27.785Z,99.90
2022-10-06T01:23:58.351Z,99.90
2022-10-06T01:26:28.318Z,99.90
2022-10-06T01:28:56.506Z,99.90
2022-10-06T01:31:26.234Z,99.90
2022-10-06T01:33:55.043Z,99.90
2022-10-06T01:36:23.900Z,99.90
2022-10-06T01:38:53.122Z,99.90
2022-10-06T01:41:22.543Z,99.90
2022-10-06T01:43:50.726Z,99.90
2022-10-06T01:46:18.649Z,99.90
2022-10-06T01:48:46.488Z,99.90
2022-10-06T01:51:17.348Z,99.90
2022-10-06T01:53:45.344Z,99.90
2022-10-06T01:56:13.739Z,99.90
2022-10-06T01:58:43.895Z,99.90
2022-10-06T02:01:12.476Z,99.90
2022-10-06T02:03:41.265Z,99.90
2022-10-06T02:06:10.601Z,99.90
2022-10-06T02:08:39.573Z,99.90
2022-10-06T02:11:10.000Z,99.90
2022-10-06T02:13:43.395Z,99.90
2022-10-06T02:16:13.779Z,99.90
2022-10-06T02:18:43.556Z,99.90
2022-10-06T02:21:15.179Z,99.90
2022-10-06T02:23:43.052Z,99.90
2022-10-06T02:26:11.193Z,99.90
2022-10-06T02:28:39.374Z,99.90
2022-10-06T02:31:12.068Z,99.90
2022-10-06T02:33:42.212Z,99.90
2022-10-06T02:36:13.160Z,99.90
2022-10-06T02:38:41.585Z,99.90
2022-10-06T02:41:10.435Z,99.90
2022-10-06T02:43:38.904Z,99.90
2022-10-06T02:46:09.233Z,99.90
2022-10-06T02:48:39.668Z,99.90
2022-10-06T02:51:11.464Z,99.90
2022-10-06T02:53:39.754Z,99.90
2022-10-06T02:56:10.518Z,99.90
2022-10-06T02:58:39.990Z,99.90
2022-10-06T03:01:12.895Z,99.90
2022-10-06T03:03:42.775Z,99.90
2022-10-06T03:06:22.600Z,99.90
2022-10-06T03:09:02.898Z,99.90
2022-10-06T03:11:33.859Z,99.90
2022-10-06T03:14:02.030Z,99.90
2022-10-06T03:16:33.434Z,99.90
2022-10-06T03:19:03.878Z,99.90
2022-10-06T03:21:34.821Z,99.90
2022-10-06T03:24:03.154Z,99.90
2022-10-06T03:26:33.543Z,99.90
2022-10-06T03:29:01.850Z,99.90
2022-10-06T03:31:30.633Z,99.90
2022-10-06T03:33:59.009Z,99.90
2022-10-06T03:36:33.312Z,99.90
2022-10-06T03:39:04.082Z,99.90
2022-10-06T03:41:36.208Z,99.90
2022-10-06T03:44:05.635Z,99.90
2022-10-06T03:46:37.058Z,99.90
2022-10-06T03:49:08.007Z,99.90
2022-10-06T03:51:38.700Z,99.90
2022-10-06T03:54:10.566Z,99.90
2022-10-06T03:56:41.466Z,99.90
2022-10-06T03:59:13.829Z,99.90
2022-10-06T04:01:46.309Z,99.90
2022-10-06T04:04:18.759Z,99.90
2022-10-06T04:06:51.797Z,99.90
2022-10-06T04:09:21.673Z,99.90
2022-10-06T04:11:51.615Z,99.90
2022-10-06T04:14:20.314Z,99.90
2022-10-06T04:16:49.677Z,99.90
2022-10-06T04:19:22.688Z,99.90
2022-10-06T04:21:55.818Z,99.90
2022-10-06T04:24:25.628Z,99.90
2022-10-06T04:27:13.831Z,99.90
2022-10-06T04:29:42.353Z,99.90
2022-10-06T04:32:10.821Z,99.90
2022-10-06T04:34:38.850Z,99.90
2022-10-06T04:37:08.117Z,99.90
2022-10-06T04:39:37.682Z,99.90
2022-10-06T04:42:06.721Z,99.90
2022-10-06T04:44:34.594Z,99.90
2022-10-06T04:47:04.416Z,99.90
2022-10-06T04:49:32.700Z,99.90
2022-10-06T04:52:00.648Z,99.90
2022-10-06T04:54:34.134Z,99.90
2022-10-06T04:57:04.421Z,99.90
2022-10-06T04:59:49.943Z,99.90
2022-10-06T05:02:19.079Z,99.90
2022-10-06T05:04:47.902Z,99.90
2022-10-06T05:07:17.149Z,99.90
2022-10-06T05:09:47.400Z,99.90
2022-10-06T05:12:15.265Z,99.90
2022-10-06T05:14:44.561Z,99.90
2022-10-06T05:17:12.411Z,99.90
2022-10-06T05:19:40.555Z,99.90
2022-10-06T05:22:08.918Z,99.90
2022-10-06T05:24:37.429Z,99.90
2022-10-06T05:27:06.613Z,99.90
2022-10-06T05:29:35.610Z,99.90
2022-10-06T05:32:05.804Z,99.90
2022-10-06T05:34:35.200Z,99.90
2022-10-06T05:37:03.233Z,99.90
2022-10-06T05:39:31.316Z,99.90
2022-10-06T05:41:59.712Z,99.90
2022-10-06T05:44:29.690Z,99.90
2022-10-06T05:47:01.145Z,99.90
2022-10-06T05:49:29.953Z,99.90
2022-10-06T05:52:02.055Z,99.90
2022-10-06T05:54:32.879Z,99.90
2022-10-06T05:57:01.385Z,99.90
2022-10-06T05:59:32.503Z,99.90
2022-10-06T06:02:01.651Z,99.90
2022-10-06T06:04:36.443Z,99.90
2022-10-06T06:07:04.351Z,99.90
2022-10-06T06:09:32.239Z,99.90
2022-10-06T06:12:02.076Z,99.90
2022-10-06T06:15:15.172Z,99.90
2022-10-06T06:17:48.941Z,99.90
2022-10-06T06:20:16.990Z,99.90
2022-10-06T06:22:44.853Z,99.90
2022-10-06T06:25:13.494Z,99.90
2022-10-06T06:27:43.592Z,99.90
2022-10-06T06:30:15.604Z,99.90
2022-10-06T06:32:44.033Z,99.90
2022-10-06T06:35:12.023Z,99.90
2022-10-06T06:37:39.929Z,99.90
2022-10-06T06:40:08.800Z,99.90
2022-10-06T06:42:39.332Z,99.90
2022-10-06T06:45:34.523Z,99.90
2022-10-06T06:48:16.403Z,99.90
2022-10-06T06:50:46.038Z,99.90
2022-10-06T06:53:16.344Z,99.90
2022-10-06T06:55:50.908Z,99.90
2022-10-06T06:58:20.782Z,99.90
2022-10-06T07:00:50.396Z,99.90
2022-10-06T07:03:33.010Z,99.90
2022-10-06T07:06:10.575Z,99.90
2022-10-06T07:08:42.627Z,99.90
2022-10-06T07:11:16.265Z,99.90
2022-10-06T07:13:47.121Z,99.90
2022-10-06T07:16:35.975Z,99.90
2022-10-06T07:19:25.060Z,99.90
2022-10-06T07:22:12.985Z,99.90
2022-10-06T07:24:58.443Z,99.90
2022-10-06T07:27:26.468Z,99.90
2022-10-06T07:29:56.095Z,99.90
2022-10-06T07:32:27.924Z,99.90
2022-10-06T07:34:56.811Z,99.90
2022-10-06T07:37:25.268Z,99.90
2022-10-06T07:39:53.699Z,99.90
2022-10-06T07:42:21.731Z,99.90
2022-10-06T07:45:04.108Z,99.90
2022-10-06T07:47:33.388Z,99.90
2022-10-06T07:50:01.606Z,99.90
2022-10-06T07:52:30.027Z,99.90
2022-10-06T07:54:59.257Z,99.90
2022-10-06T07:57:41.025Z,99.90
2022-10-06T08:00:10.192Z,99.90
2022-10-06T08:02:42.522Z,99.90
2022-10-06T08:05:11.055Z,99.90
2022-10-06T08:07:38.863Z,99.90
2022-10-06T08:10:07.454Z,99.90
2022-10-06T08:12:37.469Z,99.90
2022-10-06T08:15:07.691Z,99.90
2022-10-06T08:17:37.039Z,99.90
2022-10-06T08:20:08.511Z,99.90
2022-10-06T08:22:38.608Z,99.90
2022-10-06T08:25:07.600Z,99.90
2022-10-06T08:27:36.999Z,99.90
2022-10-06T08:30:06.227Z,99.90
2022-10-06T08:32:35.258Z,99.90
2022-10-06T08:35:03.413Z,99.90
2022-10-06T08:37:32.704Z,99.90
2022-10-06T08:40:00.548Z,99.90
2022-10-06T08:42:35.298Z,99.90
2022-10-06T08:45:05.966Z,99.90
2022-10-06T08:47:37.040Z,99.90
2022-10-06T08:50:12.122Z,99.90
2022-10-06T08:52:52.065Z,99.90
2022-10-06T08:55:29.851Z,99.90
2022-10-06T09:00:42.033Z,99.90
2022-10-06T09:03:18.078Z,99.90
2022-10-06T09:05:46.675Z,99.90
2022-10-06T09:08:31.086Z,99.90
2022-10-06T09:11:10.169Z,99.90
2022-10-06T09:13:42.694Z,99.90
2022-10-06T09:16:14.796Z,99.90
2022-10-06T09:19:07.202Z,99.90
2022-10-06T09:21:39.601Z,99.90
2022-10-06T09:24:15.079Z,99.90
2022-10-06T09:26:45.346Z,99.90
2022-10-06T09:29:13.944Z,99.90
2022-10-06T09:31:43.897Z,99.90
2022-10-06T09:34:22.573Z,99.90
2022-10-06T09:37:02.721Z,99.90
2022-10-06T09:39:36.555Z,99.90
2022-10-06T09:42:07.886Z,99.90
2022-10-06T09:44:47.998Z,99.90
2022-10-06T09:47:35.564Z,99.90
2022-10-06T09:50:14.145Z,99.90
2022-10-06T09:52:43.072Z,99.90
2022-10-06T09:55:15.074Z,99.90
2022-10-06T09:57:50.702Z,99.90
2022-10-06T10:00:29.364Z,99.90
2022-10-06T10:03:03.726Z,99.90
2022-10-06T10:05:38.889Z,99.90
2022-10-06T10:08:10.040Z,99.90
2022-10-06T10:10:39.617Z,99.90
2022-10-06T10:13:20.286Z,99.90
2022-10-06T10:15:58.170Z,99.90
2022-10-06T10:18:30.140Z,99.90
2022-10-06T10:21:00.117Z,99.90
2022-10-06T10:23:32.249Z,99.90
2022-10-06T10:26:17.480Z,99.90
2022-10-06T10:29:18.657Z,99.90
2022-10-06T10:32:03.673Z,99.90
2022-10-06T10:34:49.577Z,99.90
2022-10-06T10:37:23.593Z,99.90
2022-10-06T10:39:56.019Z,99.90
2022-10-06T10:42:30.866Z,99.90
2022-10-06T10:45:02.167Z,99.90
2022-10-06T10:47:34.174Z,99.90
2022-10-06T10:50:08.328Z,99.90
2022-10-06T10:52:42.310Z,99.90
2022-10-06T10:55:23.141Z,99.90
2022-10-06T10:57:55.086Z,99.90
2022-10-06T11:00:28.044Z,99.90
2022-10-06T11:02:59.128Z,99.90
2022-10-06T11:05:53.624Z,99.90
2022-10-06T11:08:26.025Z,99.90
2022-10-06T11:10:58.494Z,99.90
2022-10-06T11:13:33.618Z,99.90
2022-10-06T11:16:26.281Z,99.90
2022-10-06T11:19:15.757Z,99.90
2022-10-06T11:21:51.017Z,99.90
2022-10-06T11:24:31.966Z,99.90
2022-10-06T11:27:18.091Z,99.90
2022-10-06T11:30:01.189Z,99.90
2022-10-06T11:32:37.702Z,99.90
2022-10-06T11:35:16.895Z,99.90
2022-10-06T11:37:49.878Z,99.90
2022-10-06T11:40:36.000Z,99.90
2022-10-06T11:43:09.944Z,99.90
2022-10-06T11:45:46.797Z,99.90
2022-10-06T11:48:26.564Z,99.90
2022-10-06T11:50:56.196Z,99.90
2022-10-06T11:53:43.930Z,99.90
2022-10-06T11:56:44.119Z,99.90
2022-10-06T11:59:27.111Z,99.90
2022-10-06T12:01:58.415Z,99.90
2022-10-06T12:04:27.286Z,99.90
2022-10-06T12:07:03.014Z,99.90
2022-10-06T12:09:53.049Z,99.90
2022-10-06T12:13:06.155Z,99.90
2022-10-06T12:19:02.030Z,99.90
2022-10-06T12:21:43.129Z,99.90
2022-10-06T12:24:36.899Z,99.90
2022-10-06T12:27:36.268Z,99.90
2022-10-06T12:30:16.013Z,99.90
2022-10-06T12:32:52.616Z,99.90
2022-10-06T12:35:33.318Z,99.90
2022-10-06T12:38:04.672Z,99.90
2022-10-06T12:40:47.483Z,99.90
2022-10-06T12:43:28.895Z,99.90
2022-10-06T12:46:00.309Z,99.90
2022-10-06T12:48:36.499Z,99.90
2022-10-06T12:51:21.585Z,99.90
2022-10-06T12:53:56.770Z,99.90
2022-10-06T12:56:29.481Z,99.90
2022-10-06T12:58:57.979Z,99.90
2022-10-06T13:01:27.791Z,99.90
2022-10-06T13:03:56.187Z,99.90
2022-10-06T13:06:26.676Z,99.90
2022-10-06T13:09:08.129Z,99.90
2022-10-06T13:11:36.605Z,99.90
2022-10-06T13:14:15.137Z,99.90
2022-10-06T13:16:45.957Z,99.90
2022-10-06T13:19:20.106Z,99.90
2022-10-06T13:21:49.345Z,99.90
2022-10-06T13:24:22.995Z,99.90
2022-10-06T13:26:50.965Z,99.90
2022-10-06T13:29:25.598Z,99.90
2022-10-06T13:31:55.557Z,99.90
2022-10-06T13:34:30.086Z,99.90
2022-10-06T13:37:00.702Z,99.90
2022-10-06T13:39:31.611Z,99.90
2022-10-06T13:42:03.430Z,99.90
2022-10-06T13:44:36.244Z,99.90
2022-10-06T13:47:06.263Z,99.90
2022-10-06T13:49:37.145Z,99.90
2022-10-06T13:52:16.232Z,99.90
2022-10-06T13:54:47.887Z,99.90
2022-10-06T13:57:34.070Z,99.90
2022-10-06T14:00:09.649Z,99.00
2022-10-06T14:02:38.321Z,98.30
2022-10-06T14:05:29.243Z,97.50
2022-10-06T14:08:01.093Z,97.20
2022-10-06T14:10:33.473Z,97.20
2022-10-06T14:13:02.255Z,96.00
2022-10-06T14:15:36.151Z,95.30
2022-10-06T14:18:06.058Z,95.10
2022-10-06T14:20:53.244Z,94.90
2022-10-06T14:23:43.104Z,94.20
2022-10-06T14:26:12.900Z,94.00
2022-10-06T14:28:41.309Z,94.10
2022-10-06T14:31:14.518Z,93.70
2022-10-06T14:33:43.060Z,93.70
2022-10-06T14:36:19.474Z,94.60
2022-10-06T14:38:50.117Z,94.30
2022-10-06T14:41:20.240Z,94.00
2022-10-06T14:43:48.731Z,93.90
2022-10-06T14:46:16.594Z,93.20
2022-10-06T14:48:44.863Z,93.10
2022-10-06T14:51:12.709Z,92.70
2022-10-06T14:53:40.635Z,93.10
2022-10-06T14:56:14.267Z,94.50
2022-10-06T14:58:44.746Z,95.60
2022-10-06T15:01:16.582Z,96.60
2022-10-06T15:03:49.063Z,97.70
2022-10-06T15:06:34.886Z,98.80
2022-10-06T15:09:02.795Z,99.70
2022-10-06T15:11:31.986Z,99.90
2022-10-06T15:14:00.318Z,99.90
2022-10-06T15:16:29.874Z,99.90
2022-10-06T15:18:59.809Z,99.90
2022-10-06T15:21:29.907Z,99.90
2022-10-06T15:23:59.133Z,99.90
2022-10-06T15:26:45.410Z,99.90
2022-10-06T15:29:14.661Z,99.90
2022-10-06T15:31:43.843Z,99.90
2022-10-06T15:34:15.050Z,99.90
2022-10-06T15:36:43.816Z,99.90
2022-10-06T15:39:13.497Z,99.90
2022-10-06T15:41:43.417Z,99.90
2022-10-06T15:44:12.639Z,99.90
2022-10-06T15:46:43.594Z,99.90
2022-10-06T15:49:12.989Z,99.90
2022-10-06T15:51:45.742Z,99.90
2022-10-06T15:54:14.448Z,99.90
2022-10-06T15:56:43.042Z,99.90
2022-10-06T15:59:11.504Z,99.90
2022-10-06T16:01:43.394Z,99.90
2022-10-06T16:04:29.296Z,99.90
2022-10-06T16:06:57.533Z,99.90
2022-10-06T16:09:27.242Z,99.90
2022-10-06T16:11:56.018Z,99.90
2022-10-06T16:14:24.796Z,99.90
2022-10-06T16:16:58.857Z,99.90
2022-10-06T16:19:28.838Z,99.90
2022-10-06T16:21:59.080Z,99.90
2022-10-06T16:24:27.635Z,99.90
2022-10-06T16:26:57.387Z,99.90
2022-10-06T16:29:25.521Z,99.90
2022-10-06T16:31:54.922Z,99.90
2022-10-06T16:34:23.099Z,99.90
2022-10-06T16:36:51.032Z,99.90
2022-10-06T16:39:20.878Z,99.90
2022-10-06T16:41:49.147Z,99.90
2022-10-06T16:44:17.490Z,99.90
2022-10-06T16:46:45.752Z,99.90
2022-10-06T16:49:15.058Z,99.90
2022-10-06T16:51:45.623Z,99.90
2022-10-06T16:54:15.211Z,99.90
2022-10-06T16:56:44.826Z,99.90
2022-10-06T16:59:14.937Z,99.90
2022-10-06T17:01:43.055Z,99.90
2022-10-06T17:04:12.729Z,99.90
2022-10-06T17:06:43.909Z,99.90
2022-10-06T17:09:14.111Z,99.90
2022-10-06T17:11:43.110Z,99.90
2022-10-06T17:14:11.323Z,99.90
2022-10-06T17:16:41.886Z,99.90
2022-10-06T17:19:12.386Z,99.90
2022-10-06T17:21:47.350Z,99.90
2022-10-06T17:24:18.009Z,99.90
2022-10-06T17:26:47.962Z,99.90
2022-10-06T17:29:18.584Z,99.90
2022-10-06T17:31:47.458Z,99.90
2022-10-06T17:34:20.881Z,99.90
2022-10-06T17:36:52.056Z,99.90
2022-10-06T17:39:21.623Z,99.90
2022-10-06T17:41:51.377Z,99.90
2022-10-06T17:44:23.027Z,99.90
2022-10-06T17:46:53.031Z,99.90
2022-10-06T17:49:22.516Z,99.90
2022-10-06T17:51:52.821Z,99.90
2022-10-06T17:54:22.778Z,99.90
2022-10-06T17:56:52.222Z,99.90
2022-10-06T17:59:22.361Z,99.90
2022-10-06T18:01:51.668Z,99.90
2022-10-06T18:04:20.337Z,99.90
2022-10-06T18:06:48.946Z,99.90
2022-10-06T18:09:18.541Z,99.90
2022-10-06T18:11:48.281Z,99.90
2022-10-06T18:14:18.773Z,99.90
2022-10-06T18:16:53.424Z,99.90
2022-10-06T18:19:26.242Z,99.90
2022-10-06T18:21:56.309Z,99.90
2022-10-06T18:24:27.439Z,99.90
2022-10-06T18:26:57.159Z,99.90
2022-10-06T18:29:28.067Z,99.90
2022-10-06T18:32:09.078Z,99.90
2022-10-06T18:37:31.462Z,99.90
2022-10-06T18:40:02.304Z,99.90
2022-10-06T18:42:30.119Z,99.90
2022-10-06T18:45:15.728Z,99.90
2022-10-06T18:48:01.256Z,99.90
2022-10-06T18:50:29.115Z,99.90
2022-10-06T18:52:57.221Z,99.90
2022-10-06T18:55:27.763Z,99.90
2022-10-06T18:57:55.699Z,99.90
2022-10-06T19:00:25.796Z,99.90
2022-10-06T19:02:55.391Z,99.90
2022-10-06T19:05:23.513Z,99.90
2022-10-06T19:07:53.459Z,99.90
2022-10-06T19:10:21.383Z,99.90
2022-10-06T19:12:50.674Z,99.90
2022-10-06T19:15:20.956Z,99.90
2022-10-06T19:17:49.484Z,99.90
2022-10-06T19:20:18.216Z,99.90
2022-10-06T19:22:47.467Z,99.90
2022-10-06T19:25:18.498Z,99.90
2022-10-06T19:27:46.426Z,99.90
2022-10-06T19:30:15.780Z,99.90
2022-10-06T19:32:43.597Z,99.90
2022-10-06T19:35:11.955Z,99.90
2022-10-06T19:37:40.171Z,99.90
2022-10-06T19:40:11.049Z,99.90
2022-10-06T19:42:47.203Z,99.90
2022-10-06T19:45:17.873Z,99.90
2022-10-06T19:47:47.097Z,99.90
2022-10-06T19:50:16.753Z,99.90
2022-10-06T19:52:45.092Z,99.90
2022-10-06T19:55:13.047Z,99.90
2022-10-06T19:57:41.187Z,99.90
2022-10-06T20:00:10.584Z,99.90
2022-10-06T20:02:43.819Z,99.90
2022-10-06T20:05:12.648Z,99.90
2022-10-06T20:07:40.815Z,99.90
2022-10-06T20:10:09.095Z,99.90
2022-10-06T20:12:38.272Z,99.90
2022-10-06T20:15:07.522Z,99.90
2022-10-06T20:17:35.688Z,99.90
2022-10-06T20:20:05.248Z,99.90
2022-10-06T20:22:33.080Z,99.90
2022-10-06T20:25:02.271Z,99.90
2022-10-06T20:27:30.150Z,99.90
2022-10-06T20:29:58.273Z,99.90
2022-10-06T20:32:26.262Z,99.90
2022-10-06T20:34:54.190Z,99.90
2022-10-06T20:37:23.375Z,99.90
2022-10-06T20:40:08.703Z,99.90
2022-10-06T20:42:36.552Z,99.90
2022-10-06T20:45:04.810Z,99.90
2022-10-06T20:47:32.793Z,99.90
2022-10-06T20:50:00.836Z,99.90
2022-10-06T20:52:30.201Z,99.90
2022-10-06T20:54:58.018Z,99.90
2022-10-06T20:57:29.041Z,99.90
2022-10-06T20:59:59.669Z,99.90
2022-10-06T21:02:27.483Z,99.90
2022-10-06T21:04:57.296Z,99.90
2022-10-06T21:07:25.116Z,99.90
2022-10-06T21:09:54.301Z,99.90
2022-10-06T21:12:22.137Z,99.90
2022-10-06T21:14:49.962Z,99.90
2022-10-06T21:17:18.754Z,99.90
2022-10-06T21:19:46.598Z,99.90
2022-10-06T21:22:14.407Z,99.90
2022-10-06T21:24:42.305Z,99.90
2022-10-06T21:27:11.492Z,99.90
2022-10-06T21:29:39.336Z,99.90
2022-10-06T21:32:09.881Z,99.90
2022-10-06T21:34:40.072Z,99.90
2022-10-06T21:37:07.980Z,99.90
2022-10-06T21:39:35.745Z,99.90
2022-10-06T21:42:03.627Z,99.90
2022-10-06T21:44:32.813Z,99.90
2022-10-06T21:47:02.430Z,99.90
2022-10-06T21:49:30.433Z,99.90
2022-10-06T21:52:03.387Z,99.90
2022-10-06T21:54:31.358Z,99.90
2022-10-06T21:56:59.471Z,99.90
2022-10-06T21:59:27.299Z,99.90
2022-10-06T22:01:56.690Z,99.90
2022-10-06T22:04:24.703Z,99.90
2022-10-06T22:06:52.530Z,99.90
2022-10-06T22:09:21.383Z,99.90
2022-10-06T22:11:49.803Z,99.90
2022-10-06T22:14:19.556Z,99.90
2022-10-06T22:16:48.122Z,99.90
2022-10-06T22:19:17.762Z,99.90
2022-10-06T22:21:47.546Z,99.90
2022-10-06T22:24:17.788Z,99.90
2022-10-06T22:26:46.221Z,99.90
2022-10-06T22:29:16.370Z,99.90
2022-10-06T22:31:46.230Z,99.90
2022-10-06T22:34:17.909Z,99.90
2022-10-06T22:36:45.921Z,99.90
2022-10-06T22:39:13.872Z,99.90
2022-10-06T22:41:42.130Z,99.90
2022-10-06T22:44:10.020Z,99.90
2022-10-06T22:46:38.720Z,99.90
2022-10-06T22:49:06.942Z,99.90
2022-10-06T22:51:36.547Z,99.90
2022-10-06T22:54:04.582Z,99.90
2022-10-06T22:56:33.923Z,99.90
2022-10-06T22:59:02.202Z,99.90
2022-10-06T23:01:30.763Z,99.90
2022-10-06T23:03:59.178Z,99.90
2022-10-06T23:06:29.527Z,99.90
2022-10-06T23:08:59.022Z,99.90
2022-10-06T23:11:27.065Z,99.90
2022-10-06T23:13:54.957Z,99.90
2022-10-06T23:16:22.828Z,99.90
2022-10-06T23:18:50.874Z,99.90
2022-10-06T23:21:22.343Z,99.90
2022-10-06T23:23:52.112Z,99.90
2022-10-06T23:26:23.092Z,99.90
2022-10-06T23:28:55.554Z,99.90
2022-10-06T23:31:23.582Z,99.90
2022-10-06T23:33:51.440Z,99.90
2022-10-06T23:36:19.517Z,99.90
2022-10-06T23:38:48.150Z,99.90
2022-10-06T23:41:16.617Z,99.90
2022-10-06T23:43:46.173Z,99.90
2022-10-06T23:46:14.674Z,99.90
2022-10-06T23:48:42.977Z,99.90
2022-10-06T23:51:12.974Z,99.90
2022-10-06T23:53:41.185Z,99.90
2022-10-06T23:56:09.591Z,99.90
2022-10-06T23:58:37.563Z,99.90
